Hepburn Heights, Pennsylvania
Current Conditions -  °F | °C
As of 1:54 PM on Thursday 27 Nov 2014 (Local Time) from KIPT Reporting Station
Broken Clouds Broken Clouds  
Wind Chill: 28°   Ceiling: 4600
Heat Index: 35°   Visibility: 10mi
Dew Point: 26°   Wind: 9mph
Humidity: 70%   Direction: 250°WSW
Pressure: 30.02"   Gusts: NA
Location:  41.3181°N, 77.075°W
Report Text: KIPT 271854Z 25008KT 10SM SCT039 BKN046 02/M03 A3002 RMK AO2 SLP170 T00171033
Loading
Personal Weather Stations






























Interactive Weather Map New forecast layout! Learn more

10-Day Weather Forecast

Advertisements
Track Severe Weather on mobile